Houlton, ME

10:44 PM EDT on July 27, 2015 (GMT -0400)
Littleton | | Change Station
CLOSE
Current Station
Personal Weather Station
Location: Littleton, ME
Elevation: 371 ft
Nearby Weather Stations

Elev 371 ft 46.20 °N, 67.81 °W | Updated 8 minutes ago

Partly Cloudy
Partly Cloudy
65.8 °F
Feels Like 65.8 °F
N
3.2
Wind Variable Wind from SW

Today
High -- | Low -- °F
--% Chance of Precip.
Yesterday
High -- | Low -- °F
Precip. -- in
5:07 AM 8:07 PM
Waxing Gibbous, 86% visible
Pressure 29.96 in
Visibility 7.0 miles
Clouds Few 600 ft
Dew Point 66 °F
Humidity 99%
Rainfall 0.00 in
Snow Depth Not available.
UV 0 out of 12
Pollen 4.20 out of 12
Air Quality Not available.
Flu Activity Not available.
SPECI KHUL 280236Z AUTO 18006KT 7SM FEW006 19/18 A2996 RMK AO2 T01940183

More Conditions Fewer Conditions

Pressure 29.96 in
Visibility 7.0 miles
Clouds Few 600 ft
Dew Point 66 °F
Humidity 99%
Rainfall 0.00 in
Snow Depth Not available.
UV 0 out of 12
Pollen 4.20 out of 12
Air Quality Not available.
Flu Activity Not available.
SPECI KHUL 280236Z AUTO 18006KT 7SM FEW006 19/18 A2996 RMK AO2 T01940183

More Conditions Fewer Conditions

10-Day Weather Forecast

×

Almanac

Astronomy

Jul. 27, 2015 Rise Set
Actual Time
Civil Twilight
Nautical Twilight
Astronomical Twilight
Moon
Length of Visible Light
Length of Day
Tomorrow will be .
, % of the Moon is Illuminated

Today's Extremes

State Highs State Lows

Community

WunderPhotos

Upload Photos

1,841,777 photos uploaded!

WunderBlogs® & News

Nearby

Air Quality

  Air Quality AQ Index Pollutant
Not available.

Snow Depth

Station Depth Elevation

Earthquake Activity

City Distance Mag. Time & Date
Minimum magnitude displayed is 2.5.

Coastal Water Temperatures

Place Temperature

Stations

Nearby Weather Stations

Station Location Temp. Windchill Dew Point Humidity Wind Precip. Elev Updated Type